createdAt,value
2023-05-17T00:00:46.133Z,79.98
2023-05-17T00:03:12.639Z,79.43
2023-05-17T00:05:39.307Z,79.82
2023-05-17T00:08:05.942Z,80.06
2023-05-17T00:10:32.416Z,79.83
2023-05-17T00:12:58.921Z,79.36
2023-05-17T00:15:25.544Z,78.47
2023-05-17T00:17:52.349Z,79.54
2023-05-17T00:20:18.969Z,80.08
2023-05-17T00:22:47.272Z,79.69
2023-05-17T00:25:13.802Z,79.80
2023-05-17T00:27:40.259Z,80.87
2023-05-17T00:30:07.545Z,80.06
2023-05-17T00:32:33.991Z,80.72
2023-05-17T00:35:00.601Z,79.84
2023-05-17T00:37:27.268Z,80.53
2023-05-17T00:39:54.167Z,80.24
2023-05-17T00:42:20.746Z,80.25
2023-05-17T00:44:47.222Z,80.19
2023-05-17T00:47:13.709Z,80.54
2023-05-17T00:49:40.248Z,80.68
2023-05-17T00:52:07.837Z,80.96
2023-05-17T00:54:34.490Z,82.00
2023-05-17T00:57:01.427Z,82.39
2023-05-17T00:59:28.117Z,82.02
2023-05-17T01:01:54.785Z,82.40
2023-05-17T01:04:21.391Z,82.66
2023-05-17T01:06:49.236Z,81.57
2023-05-17T01:09:16.675Z,82.12
2023-05-17T01:12:01.508Z,81.34
2023-05-17T01:14:49.709Z,82.88
2023-05-17T01:17:18.500Z,80.70
2023-05-17T01:20:06.499Z,80.94
2023-05-17T01:22:45.146Z,81.13
2023-05-17T01:25:25.153Z,80.93
2023-05-17T01:27:52.354Z,81.39
2023-05-17T01:30:20.705Z,81.57
2023-05-17T01:32:49.491Z,80.85
2023-05-17T01:35:16.378Z,80.31
2023-05-17T01:37:43.573Z,81.04
2023-05-17T01:40:10.979Z,81.41
2023-05-17T01:42:40.311Z,81.39
2023-05-17T01:45:26.906Z,80.03
2023-05-17T01:48:18.666Z,80.91
2023-05-17T01:50:48.943Z,80.55
2023-05-17T01:53:23.436Z,80.76
2023-05-17T01:55:52.080Z,80.83
2023-05-17T01:58:21.851Z,81.91
2023-05-17T02:00:49.593Z,81.63
2023-05-17T02:03:20.339Z,82.28
2023-05-17T02:05:46.963Z,81.90
2023-05-17T02:08:13.650Z,81.89
2023-05-17T02:10:40.369Z,81.93
2023-05-17T02:13:07.055Z,82.92
2023-05-17T02:15:33.718Z,82.85
2023-05-17T02:18:01.654Z,83.41
2023-05-17T02:20:28.255Z,82.89
2023-05-17T02:22:54.729Z,83.64
2023-05-17T02:25:21.304Z,83.31
2023-05-17T02:27:47.926Z,83.46
2023-05-17T02:30:18.063Z,83.58
2023-05-17T02:32:46.250Z,83.50
2023-05-17T02:35:12.970Z,82.63
2023-05-17T02:37:39.803Z,83.58
2023-05-17T02:40:09.602Z,84.01
2023-05-17T02:42:36.665Z,84.40
2023-05-17T02:45:03.492Z,84.29
2023-05-17T02:47:30.159Z,84.01
2023-05-17T02:49:56.924Z,84.36
2023-05-17T02:52:23.477Z,84.03
2023-05-17T02:54:50.098Z,84.73
2023-05-17T02:57:16.572Z,84.74
2023-05-17T02:59:43.126Z,85.32
2023-05-17T03:02:09.624Z,86.03
2023-05-17T03:04:36.952Z,86.05
2023-05-17T03:07:05.084Z,86.60
2023-05-17T03:09:33.561Z,86.05
2023-05-17T03:12:00.186Z,86.56
2023-05-17T03:14:26.616Z,87.10
2023-05-17T03:16:53.084Z,87.56
2023-05-17T03:19:19.693Z,88.03
2023-05-17T03:21:46.288Z,88.31
2023-05-17T03:24:12.840Z,88.68
2023-05-17T03:30:01.836Z,89.29
2023-05-17T03:32:31.170Z,89.84
2023-05-17T03:34:58.675Z,89.70
2023-05-17T03:37:27.447Z,90.01
2023-05-17T03:39:55.116Z,90.72
2023-05-17T03:42:21.566Z,90.55
2023-05-17T03:44:49.019Z,90.04
2023-05-17T03:47:15.870Z,90.40
2023-05-17T03:49:43.001Z,89.49
2023-05-17T03:52:09.440Z,89.52
2023-05-17T03:54:37.969Z,89.29
2023-05-17T03:57:05.159Z,89.63
2023-05-17T03:59:31.624Z,89.15
2023-05-17T04:01:58.188Z,88.56
2023-05-17T04:04:24.897Z,88.93
2023-05-17T04:06:51.861Z,88.57
2023-05-17T04:09:18.612Z,88.65
2023-05-17T04:11:45.276Z,88.56
2023-05-17T04:14:11.964Z,87.57
2023-05-17T04:16:38.486Z,86.69
2023-05-17T04:19:05.033Z,86.22
2023-05-17T04:21:31.651Z,85.65
2023-05-17T04:23:59.190Z,84.31
2023-05-17T04:26:26.788Z,83.76
2023-05-17T04:28:53.304Z,82.98
2023-05-17T04:31:19.825Z,82.06
2023-05-17T04:33:46.847Z,81.21
2023-05-17T04:36:14.471Z,79.61
2023-05-17T04:38:41.988Z,79.75
2023-05-17T04:41:09.525Z,78.74
2023-05-17T04:43:37.122Z,78.24
2023-05-17T04:46:05.958Z,76.12
2023-05-17T04:48:33.293Z,75.89
2023-05-17T04:51:04.360Z,74.52
2023-05-17T04:53:31.341Z,74.14
2023-05-17T04:55:58.394Z,73.62
2023-05-17T04:58:25.849Z,73.13
2023-05-17T05:00:52.949Z,72.23
2023-05-17T05:03:19.768Z,71.64
2023-05-17T05:05:52.616Z,70.33
2023-05-17T05:08:19.219Z,70.90
2023-05-17T05:10:46.762Z,69.98
2023-05-17T05:13:15.285Z,69.23
2023-05-17T05:15:41.776Z,70.46
2023-05-17T05:18:08.520Z,69.04
2023-05-17T05:20:37.131Z,69.08
2023-05-17T05:23:05.857Z,68.55
2023-05-17T05:25:32.893Z,67.37
2023-05-17T05:27:59.346Z,67.25
2023-05-17T05:30:25.885Z,66.27
2023-05-17T05:32:52.512Z,65.35
2023-05-17T05:35:19.231Z,64.42
2023-05-17T05:37:45.791Z,62.35
2023-05-17T05:40:12.789Z,61.01
2023-05-17T05:42:39.384Z,57.53
2023-05-17T05:45:06.489Z,56.15
2023-05-17T05:47:33.051Z,54.29
2023-05-17T05:49:59.644Z,52.31
2023-05-17T05:52:26.066Z,52.33
2023-05-17T05:54:52.476Z,52.33
2023-05-17T05:57:20.051Z,52.94
2023-05-17T05:59:46.488Z,53.49
2023-05-17T06:02:13.127Z,52.88
2023-05-17T06:04:45.772Z,54.83
2023-05-17T06:07:14.053Z,54.55
2023-05-17T06:09:41.481Z,57.10
2023-05-17T06:12:08.386Z,56.23
2023-05-17T06:14:34.834Z,55.49
2023-05-17T06:17:01.318Z,53.06
2023-05-17T06:19:27.894Z,51.27
2023-05-17T06:21:54.512Z,50.99
2023-05-17T06:24:21.039Z,47.16
2023-05-17T06:26:47.519Z,47.65
2023-05-17T06:29:14.051Z,46.77
2023-05-17T06:31:42.217Z,45.81
2023-05-17T06:34:08.871Z,42.22
2023-05-17T06:36:36.660Z,42.04
2023-05-17T06:39:04.833Z,41.05
2023-05-17T06:41:31.247Z,39.06
2023-05-17T06:43:57.726Z,37.70
2023-05-17T06:46:24.136Z,35.94
2023-05-17T06:48:51.516Z,35.22
2023-05-17T06:51:18.186Z,36.23
2023-05-17T06:53:44.816Z,37.55
2023-05-17T06:56:11.423Z,41.25
2023-05-17T06:58:37.851Z,43.40
2023-05-17T07:01:04.512Z,45.52
2023-05-17T07:03:31.080Z,47.98
2023-05-17T07:05:57.608Z,48.84
2023-05-17T07:08:24.032Z,47.04
2023-05-17T07:10:53.685Z,45.11
2023-05-17T07:13:20.234Z,45.49
2023-05-17T07:15:46.713Z,48.64
2023-05-17T07:18:13.639Z,46.83
2023-05-17T07:20:40.114Z,46.42
2023-05-17T07:23:06.590Z,45.54
2023-05-17T07:25:33.141Z,46.41
2023-05-17T07:27:59.722Z,47.32
2023-05-17T07:30:26.211Z,48.19
2023-05-17T07:32:52.595Z,50.07
2023-05-17T07:35:21.074Z,52.31
2023-05-17T07:37:48.262Z,51.58
2023-05-17T07:40:14.894Z,49.77
2023-05-17T07:42:41.340Z,45.62
2023-05-17T07:45:08.521Z,42.69
2023-05-17T07:47:34.972Z,41.93
2023-05-17T07:50:03.468Z,38.07
2023-05-17T07:52:30.948Z,37.93
2023-05-17T07:54:57.465Z,35.04
2023-05-17T07:57:23.905Z,35.35
2023-05-17T07:59:50.389Z,37.34
2023-05-17T08:02:17.235Z,38.15
2023-05-17T08:04:43.876Z,38.87
2023-05-17T08:07:10.510Z,38.72
2023-05-17T08:09:37.139Z,37.61
2023-05-17T08:12:03.655Z,39.11
2023-05-17T08:14:31.228Z,40.01
2023-05-17T08:16:58.706Z,37.61
2023-05-17T08:19:26.675Z,34.95
2023-05-17T08:21:53.297Z,34.81
2023-05-17T08:24:19.916Z,32.66
2023-05-17T08:26:46.370Z,31.47
2023-05-17T08:29:13.014Z,32.54
2023-05-17T08:31:39.454Z,35.26
2023-05-17T08:34:06.153Z,38.81
2023-05-17T08:36:32.751Z,40.98
2023-05-17T08:38:59.187Z,41.53
2023-05-17T08:41:25.793Z,40.84
2023-05-17T08:43:52.881Z,37.89
2023-05-17T08:46:23.688Z,35.13
2023-05-17T08:48:52.000Z,37.81
2023-05-17T08:51:23.105Z,39.21
2023-05-17T08:53:50.684Z,43.15
2023-05-17T08:56:19.500Z,43.71
2023-05-17T09:01:18.830Z,45.98
2023-05-17T09:03:49.632Z,46.53
2023-05-17T09:06:23.788Z,42.83
2023-05-17T09:08:55.101Z,39.90
2023-05-17T09:11:33.049Z,37.41
2023-05-17T09:14:00.921Z,38.04
2023-05-17T09:16:35.515Z,40.35
2023-05-17T09:19:03.932Z,43.46
2023-05-17T09:21:32.251Z,44.90
2023-05-17T09:24:06.172Z,45.35
2023-05-17T09:26:43.489Z,47.31
2023-05-17T09:29:11.598Z,47.52
2023-05-17T09:31:39.113Z,46.72
2023-05-17T09:34:07.948Z,46.42
2023-05-17T09:36:38.784Z,44.65
2023-05-17T09:39:06.736Z,45.37
2023-05-17T09:41:40.646Z,45.25
2023-05-17T09:44:11.973Z,47.22
2023-05-17T09:46:42.047Z,48.23
2023-05-17T09:49:09.418Z,49.70
2023-05-17T09:51:39.719Z,48.10
2023-05-17T09:54:06.834Z,50.14
2023-05-17T09:56:35.038Z,48.77
2023-05-17T09:59:01.981Z,49.68
2023-05-17T10:01:29.898Z,49.69
2023-05-17T10:03:59.671Z,48.61
2023-05-17T10:06:39.207Z,48.29
2023-05-17T10:09:13.877Z,47.61
2023-05-17T10:11:41.626Z,48.45
2023-05-17T10:14:10.466Z,47.90
2023-05-17T10:16:37.991Z,45.76
2023-05-17T10:19:05.141Z,42.90
2023-05-17T10:21:32.419Z,38.23
2023-05-17T10:24:01.182Z,40.23
2023-05-17T10:26:28.261Z,39.41
2023-05-17T10:29:03.297Z,39.57
2023-05-17T10:31:30.945Z,37.90
2023-05-17T10:33:59.293Z,34.81
2023-05-17T10:36:27.157Z,30.23
2023-05-17T10:38:54.010Z,34.01
2023-05-17T10:41:24.295Z,33.91
2023-05-17T10:43:51.698Z,36.34
2023-05-17T10:46:21.399Z,38.42
2023-05-17T10:48:52.154Z,37.92
2023-05-17T10:51:27.024Z,39.57
2023-05-17T10:54:02.730Z,38.83
2023-05-17T10:56:33.014Z,39.81
2023-05-17T10:59:22.286Z,37.09
2023-05-17T11:01:59.736Z,33.79
2023-05-17T11:04:36.177Z,35.42
2023-05-17T11:07:19.143Z,35.61
2023-05-17T11:09:55.811Z,37.19
2023-05-17T11:12:54.226Z,36.93
2023-05-17T11:15:27.910Z,35.30
2023-05-17T11:17:56.225Z,33.78
2023-05-17T11:20:26.217Z,33.51
2023-05-17T11:23:00.176Z,33.71
2023-05-17T11:25:45.650Z,31.20
2023-05-17T11:28:20.073Z,32.02
2023-05-17T11:30:53.663Z,31.32
2023-05-17T11:33:33.053Z,32.44
2023-05-17T11:36:04.173Z,30.78
2023-05-17T11:38:32.667Z,32.35
2023-05-17T11:41:26.394Z,33.43
2023-05-17T11:43:54.420Z,35.93
2023-05-17T11:46:24.147Z,34.99
2023-05-17T11:48:52.170Z,32.52
2023-05-17T11:51:21.392Z,34.85
2023-05-17T11:53:50.475Z,32.42
2023-05-17T11:56:17.893Z,34.29
2023-05-17T11:58:45.441Z,35.42
2023-05-17T12:01:11.962Z,33.50
2023-05-17T12:03:38.783Z,32.01
2023-05-17T12:06:09.710Z,33.07
2023-05-17T12:08:38.319Z,33.09
2023-05-17T12:11:06.193Z,32.89
2023-05-17T12:13:34.240Z,33.61
2023-05-17T12:16:03.590Z,33.81
2023-05-17T12:18:47.379Z,35.68
2023-05-17T12:21:15.303Z,35.26
2023-05-17T12:23:43.808Z,35.36
2023-05-17T12:26:15.655Z,34.33
2023-05-17T12:28:43.977Z,32.40
2023-05-17T12:31:17.152Z,32.45
2023-05-17T12:33:45.083Z,32.35
2023-05-17T12:36:12.881Z,33.53
2023-05-17T12:38:41.042Z,31.52
2023-05-17T12:41:10.555Z,30.10
2023-05-17T12:43:37.804Z,31.55
2023-05-17T12:46:06.999Z,33.67
2023-05-17T12:48:38.088Z,33.80
2023-05-17T12:51:11.167Z,33.79
2023-05-17T12:53:39.857Z,31.03
2023-05-17T12:56:07.165Z,32.15
2023-05-17T12:58:33.924Z,31.23
2023-05-17T13:01:06.844Z,31.82
2023-05-17T13:03:34.198Z,29.80
2023-05-17T13:06:09.509Z,29.93
2023-05-17T13:08:36.266Z,30.27
2023-05-17T13:11:14.078Z,30.75
2023-05-17T13:13:41.502Z,30.79
2023-05-17T13:16:08.275Z,33.12
2023-05-17T13:19:01.196Z,33.69
2023-05-17T13:21:27.709Z,31.37
2023-05-17T13:23:54.496Z,32.29
2023-05-17T13:26:22.009Z,30.29
2023-05-17T13:28:48.594Z,30.77
2023-05-17T13:31:15.022Z,29.81
2023-05-17T13:33:41.606Z,29.89
2023-05-17T13:36:08.363Z,31.01
2023-05-17T13:38:34.741Z,31.48
2023-05-17T13:41:01.274Z,34.66
2023-05-17T13:43:27.761Z,34.28
2023-05-17T13:45:57.088Z,31.63
2023-05-17T13:48:23.909Z,31.75
2023-05-17T13:50:51.102Z,31.48
2023-05-17T13:53:18.245Z,31.63
2023-05-17T13:55:44.868Z,32.71
2023-05-17T13:58:11.525Z,33.34
2023-05-17T14:00:37.984Z,32.93
2023-05-17T14:03:04.746Z,33.21
2023-05-17T14:05:33.395Z,34.55
2023-05-17T14:08:00.265Z,33.00
2023-05-17T14:10:26.870Z,34.17
2023-05-17T14:12:53.602Z,33.80
2023-05-17T14:15:20.142Z,33.85
2023-05-17T14:17:46.775Z,33.40
2023-05-17T14:20:14.307Z,32.31
2023-05-17T14:22:41.072Z,32.07
2023-05-17T14:25:09.170Z,33.82
2023-05-17T14:27:35.714Z,33.07
2023-05-17T14:30:02.403Z,32.69
2023-05-17T14:32:29.401Z,33.60
2023-05-17T14:34:56.035Z,33.94
2023-05-17T14:37:22.471Z,33.41
2023-05-17T14:40:05.297Z,33.48
2023-05-17T14:42:33.090Z,33.21
2023-05-17T14:44:59.630Z,33.15
2023-05-17T14:47:26.113Z,33.83
2023-05-17T14:49:52.593Z,34.02
2023-05-17T14:52:19.065Z,33.30
2023-05-17T14:54:45.663Z,34.22
2023-05-17T14:57:12.203Z,33.12
2023-05-17T14:59:38.696Z,33.93
2023-05-17T15:02:05.524Z,34.88
2023-05-17T15:04:32.199Z,35.23
2023-05-17T15:06:58.955Z,33.32
2023-05-17T15:09:25.433Z,32.96
2023-05-17T15:11:51.922Z,33.28
2023-05-17T15:14:22.563Z,33.42
2023-05-17T15:16:49.134Z,34.33
2023-05-17T15:19:16.065Z,34.14
2023-05-17T15:21:43.110Z,33.79
2023-05-17T15:24:11.746Z,35.24
2023-05-17T15:26:39.532Z,32.92
2023-05-17T15:29:06.349Z,33.30
2023-05-17T15:31:32.779Z,34.17
2023-05-17T15:33:59.331Z,34.62
2023-05-17T15:36:26.190Z,33.29
2023-05-17T15:38:52.648Z,32.07
2023-05-17T15:41:21.657Z,34.97
2023-05-17T15:43:48.482Z,34.19
2023-05-17T15:46:14.944Z,32.79
2023-05-17T15:48:42.471Z,32.31
2023-05-17T15:51:09.136Z,32.93
2023-05-17T15:53:35.856Z,33.92
2023-05-17T15:56:02.545Z,33.85
2023-05-17T15:58:32.833Z,32.76
2023-05-17T16:01:02.963Z,33.02
2023-05-17T16:03:29.757Z,32.85
2023-05-17T16:05:56.624Z,33.44
2023-05-17T16:08:23.363Z,33.24
2023-05-17T16:10:49.934Z,34.30
2023-05-17T16:13:16.617Z,33.25
2023-05-17T16:15:43.184Z,33.27
2023-05-17T16:18:10.774Z,33.76
2023-05-17T16:20:37.643Z,33.22
2023-05-17T16:23:04.075Z,31.67
2023-05-17T16:25:30.817Z,30.29
2023-05-17T16:27:57.528Z,31.63
2023-05-17T16:30:24.081Z,30.68
2023-05-17T16:32:50.667Z,30.69
2023-05-17T16:35:18.391Z,32.37
2023-05-17T16:37:47.115Z,31.12
2023-05-17T16:40:13.727Z,30.95
2023-05-17T16:42:40.180Z,30.73
2023-05-17T16:45:07.907Z,30.89
2023-05-17T16:47:34.719Z,29.40
2023-05-17T16:50:01.569Z,29.33
2023-05-17T16:52:28.596Z,31.46
2023-05-17T16:55:01.486Z,30.50
2023-05-17T16:57:28.309Z,31.57
2023-05-17T16:59:55.224Z,31.19
2023-05-17T17:02:21.765Z,31.00
2023-05-17T17:04:48.550Z,32.10
2023-05-17T17:07:15.045Z,32.25
2023-05-17T17:09:41.501Z,32.76
2023-05-17T17:12:22.953Z,33.25
2023-05-17T17:14:51.083Z,32.49
2023-05-17T17:17:17.759Z,33.90
2023-05-17T17:19:44.525Z,32.90
2023-05-17T17:22:11.866Z,32.59
2023-05-17T17:24:38.590Z,32.69
2023-05-17T17:27:05.676Z,33.42
2023-05-17T17:29:35.392Z,33.33
2023-05-17T17:32:02.057Z,34.32
2023-05-17T17:34:28.633Z,34.62
2023-05-17T17:36:55.066Z,34.40
2023-05-17T17:39:21.653Z,34.85
2023-05-17T17:41:48.179Z,35.36
2023-05-17T17:44:14.628Z,35.64
2023-05-17T17:46:41.439Z,35.18
2023-05-17T17:49:08.158Z,34.99
2023-05-17T17:51:34.739Z,35.25
2023-05-17T17:54:03.659Z,36.55
2023-05-17T17:56:30.237Z,36.50
2023-05-17T17:58:57.147Z,37.60
2023-05-17T18:01:23.921Z,36.51
2023-05-17T18:03:50.550Z,36.91
2023-05-17T18:06:17.155Z,36.88
2023-05-17T18:08:43.576Z,37.56
2023-05-17T18:11:10.065Z,38.38
2023-05-17T18:13:36.757Z,36.94
2023-05-17T18:16:03.570Z,37.64
2023-05-17T18:18:30.074Z,38.59
2023-05-17T18:20:56.731Z,39.39
2023-05-17T18:23:24.573Z,40.31
2023-05-17T18:25:51.109Z,40.45
2023-05-17T18:28:21.734Z,40.37
2023-05-17T18:30:58.127Z,40.46
2023-05-17T18:33:25.163Z,41.18
2023-05-17T18:35:51.654Z,41.81
2023-05-17T18:38:18.338Z,39.96
2023-05-17T18:40:45.080Z,42.05
2023-05-17T18:43:12.887Z,40.81
2023-05-17T18:45:39.536Z,43.47
2023-05-17T18:48:06.384Z,42.75
2023-05-17T18:50:33.160Z,42.48
2023-05-17T18:53:02.630Z,44.03
2023-05-17T18:55:29.165Z,44.63
2023-05-17T18:57:55.712Z,44.43
2023-05-17T19:00:22.300Z,43.99
2023-05-17T19:02:48.751Z,44.53
2023-05-17T19:05:15.377Z,44.21
2023-05-17T19:07:41.916Z,45.21
2023-05-17T19:10:08.846Z,45.15
2023-05-17T19:12:35.651Z,45.33
2023-05-17T19:15:03.075Z,44.49
2023-05-17T19:17:29.916Z,45.32
2023-05-17T19:19:56.523Z,45.54
2023-05-17T19:22:22.997Z,46.01
2023-05-17T19:24:50.769Z,47.11
2023-05-17T19:27:19.697Z,47.23
2023-05-17T19:29:49.134Z,47.01
2023-05-17T19:32:15.736Z,46.87
2023-05-17T19:34:42.272Z,47.82
2023-05-17T19:37:08.865Z,47.36
2023-05-17T19:39:35.312Z,47.60
2023-05-17T19:42:02.835Z,47.87
2023-05-17T19:44:30.544Z,46.25
2023-05-17T19:46:57.429Z,47.16
2023-05-17T19:49:24.051Z,46.80
2023-05-17T19:51:53.985Z,47.11
2023-05-17T19:54:21.774Z,46.99
2023-05-17T19:56:48.602Z,46.72
2023-05-17T19:59:15.012Z,46.25
2023-05-17T20:01:41.597Z,46.51
2023-05-17T20:04:08.426Z,47.34
2023-05-17T20:06:34.901Z,47.87
2023-05-17T20:09:01.729Z,47.95
2023-05-17T20:11:28.352Z,47.85
2023-05-17T20:13:55.073Z,48.42
2023-05-17T20:16:21.715Z,48.27
2023-05-17T20:18:48.516Z,48.78
2023-05-17T20:21:18.663Z,48.85
2023-05-17T20:23:46.088Z,48.63
2023-05-17T20:26:25.645Z,48.30
2023-05-17T20:28:52.953Z,48.58
2023-05-17T20:31:19.576Z,49.08
2023-05-17T20:33:46.379Z,48.78
2023-05-17T20:36:14.485Z,49.80
2023-05-17T20:38:42.390Z,49.85
2023-05-17T20:41:09.142Z,49.80
2023-05-17T20:43:36.747Z,50.06
2023-05-17T20:46:09.839Z,50.23
2023-05-17T20:48:36.974Z,50.63
2023-05-17T20:51:03.665Z,50.08
2023-05-17T20:53:30.502Z,50.14
2023-05-17T20:55:57.375Z,50.28
2023-05-17T20:58:24.068Z,49.92
2023-05-17T21:00:52.952Z,50.71
2023-05-17T21:03:19.899Z,50.17
2023-05-17T21:05:46.971Z,50.14
2023-05-17T21:08:13.554Z,50.50
2023-05-17T21:10:42.710Z,49.66
2023-05-17T21:13:09.647Z,49.97
2023-05-17T21:15:36.664Z,49.91
2023-05-17T21:18:03.914Z,50.11
2023-05-17T21:20:31.207Z,50.70
2023-05-17T21:22:57.786Z,51.35
2023-05-17T21:25:24.259Z,51.29
2023-05-17T21:27:51.364Z,50.96
2023-05-17T21:30:17.884Z,52.02
2023-05-17T21:32:44.864Z,51.97
2023-05-17T21:35:11.778Z,51.90
2023-05-17T21:37:39.997Z,51.97
2023-05-17T21:40:07.555Z,52.06
2023-05-17T21:42:34.351Z,53.69
2023-05-17T21:45:01.097Z,53.11
2023-05-17T21:47:27.619Z,53.14
2023-05-17T21:49:54.214Z,53.03
2023-05-17T21:52:20.751Z,52.51
2023-05-17T21:54:47.356Z,52.01
2023-05-17T21:57:13.902Z,53.32
2023-05-17T21:59:40.560Z,52.75
2023-05-17T22:02:08.633Z,52.95
2023-05-17T22:04:35.194Z,53.28
2023-05-17T22:07:01.702Z,54.00
2023-05-17T22:09:28.153Z,53.78
2023-05-17T22:11:58.674Z,54.06
2023-05-17T22:14:25.933Z,54.43
2023-05-17T22:16:56.040Z,54.40
2023-05-17T22:19:23.439Z,54.29
2023-05-17T22:21:50.373Z,54.42
2023-05-17T22:24:16.880Z,55.27
2023-05-17T22:26:43.555Z,55.03
2023-05-17T22:29:10.083Z,55.09
2023-05-17T22:31:37.817Z,55.61
2023-05-17T22:34:04.760Z,55.54
2023-05-17T22:36:32.232Z,55.80
2023-05-17T22:38:59.061Z,55.47
2023-05-17T22:41:26.487Z,55.81
2023-05-17T22:43:53.313Z,55.92
2023-05-17T22:46:20.132Z,56.45
2023-05-17T22:48:46.555Z,56.56
2023-05-17T22:51:13.013Z,56.31
2023-05-17T22:53:39.435Z,56.52
2023-05-17T22:56:06.610Z,56.56
2023-05-17T22:58:33.106Z,57.67
2023-05-17T23:00:59.728Z,57.68
2023-05-17T23:03:26.401Z,58.25
2023-05-17T23:06:02.235Z,58.29
2023-05-17T23:08:30.025Z,59.28
2023-05-17T23:10:56.516Z,58.87
2023-05-17T23:13:22.928Z,59.51
2023-05-17T23:15:51.029Z,59.61
2023-05-17T23:18:18.176Z,60.10
2023-05-17T23:20:46.361Z,60.70
2023-05-17T23:23:15.976Z,60.54
2023-05-17T23:25:44.815Z,61.84
2023-05-17T23:28:11.522Z,63.40
2023-05-17T23:30:39.868Z,63.49
2023-05-17T23:33:06.844Z,63.74
2023-05-17T23:35:33.397Z,63.61
2023-05-17T23:38:00.570Z,64.12
2023-05-17T23:40:27.428Z,64.76
2023-05-17T23:42:53.949Z,64.43
2023-05-17T23:45:21.398Z,65.46
2023-05-17T23:47:50.324Z,66.69
2023-05-17T23:50:16.824Z,66.11
2023-05-17T23:52:44.186Z,66.36
2023-05-17T23:55:12.228Z,66.42
2023-05-17T23:57:39.961Z,67.60
